This is the latest recevied weather packets stored in our database for station/object SM6VFJ-1. If no packets are shown the sender has not sent any weather packets the latest 10 day(s).
| Time | Temp. | Humidity | Pressure | Rain* | Wind** | Luminosity | Snow |
|---|---|---|---|---|---|---|---|
| 1778137257 | 7.78° C | 68% | 1015 hPa | 0 mm | - | 452 W/m² | - |
| 1778136352 | 7.22° C | 69% | 1014.9 hPa | 0 mm | - | 415 W/m² | - |
| 1778135448 | 6.67° C | 69% | 1014.8 hPa | 0 mm | - | 380 W/m² | - |
| 1778130938 | 4.44° C | 74% | 1014.3 hPa | 0 mm | - | 146 W/m² | - |
| 1778130032 | 3.89° C | 74% | 1014 hPa | 0 mm | - | 125 W/m² | - |
| 1778127316 | 3.33° C | 75% | 1013.7 hPa | 0 mm | - | 58 W/m² | - |
| 1778121058 | 2.78° C | 76% | 1012.9 hPa | 0 mm | - | 0 W/m² | - |
| 1778117450 | 3.89° C | 76% | 1012.6 hPa | 0 mm | - | 0 W/m² | - |
| 1778116545 | 3.89° C | 75% | 1012.5 hPa | 0 mm | - | 0 W/m² | - |
| 1778115641 | 4.44° C | 73% | 1012.4 hPa | 0 mm | - | 0 W/m² | - |
| 1778109323 | 7.22° C | 63% | 1012.2 hPa | 0 mm | - | 0 W/m² | - |
| 1778108419 | 7.22° C | 62% | 1012 hPa | 0 mm | - | 0 W/m² | - |
| 1778106617 | 7.78° C | 60% | 1012.1 hPa | 0 mm | - | 0 W/m² | - |
| 1778104829 | 7.78° C | 61% | 1012 hPa | 0 mm | - | 0 W/m² | - |
| 1778102111 | 7.78° C | 57% | 1011.9 hPa | 0 mm | - | 0 W/m² | - |
| 1778100310 | 7.78° C | 55% | 1011.8 hPa | 0 mm | - | 0 W/m² | - |
| 1778095807 | 10° C | 45% | 1011.8 hPa | 0 mm | - | 0 W/m² | - |
| 1778085064 | 13.33° C | 32% | 1010.9 hPa | 0 mm | - | 248 W/m² | - |
| 1778081457 | 13.33° C | 30% | 1011.1 hPa | 0 mm | - | 396 W/m² | - |
| 1778079657 | 13.33° C | 31% | 1011.3 hPa | 0 mm | - | 462 W/m² | - |
| 1778074247 | 13.33° C | 28% | 1011.7 hPa | 0 mm | - | 647 W/m² | - |
| 1778058918 | 10.56° C | 33% | 1013.4 hPa | 0 mm | - | 703 W/m² | - |
| 1778049034 | 6.11° C | 68% | 1013.7 hPa | 0 mm | - | 385 W/m² | - |
| 1778040958 | 0° C | 85% | 1013.4 hPa | 0 mm | - | 67 W/m² | - |
| 1778031935 | -1.11° C | 80% | 1012.8 hPa | 0 mm | - | 0 W/m² | - |
* Rain latest hour (hover to see other rain measurements)
** Current wind speed in m/s (hover to see current wind gust speed)